sensor_id;sensor_type;location;lat;lon;timestamp;P1;durP1;ratioP1;P2;durP2;ratioP2
75488;SDS011;64069;46.396;48.102;2023-08-24T00:00:47;9.35;;;3.97;;
75488;SDS011;64069;46.396;48.102;2023-08-24T00:03:13;10.05;;;4.20;;
75488;SDS011;64069;46.396;48.102;2023-08-24T00:05:45;9.13;;;4.50;;
75488;SDS011;64069;46.396;48.102;2023-08-24T00:08:19;7.97;;;4.80;;
75488;SDS011;64069;46.396;48.102;2023-08-24T00:10:45;10.48;;;5.00;;
75488;SDS011;64069;46.396;48.102;2023-08-24T00:13:21;8.18;;;4.75;;
75488;SDS011;64069;46.396;48.102;2023-08-24T00:15:54;10.05;;;5.13;;
75488;SDS011;64069;46.396;48.102;2023-08-24T00:18:20;8.07;;;5.05;;
75488;SDS011;64069;46.396;48.102;2023-08-24T00:20:55;8.27;;;5.18;;
75488;SDS011;64069;46.396;48.102;2023-08-24T00:23:27;6.75;;;4.60;;
75488;SDS011;64069;46.396;48.102;2023-08-24T00:25:53;7.65;;;4.30;;
75488;SDS011;64069;46.396;48.102;2023-08-24T00:28:25;11.05;;;4.55;;
75488;SDS011;64069;46.396;48.102;2023-08-24T00:31:06;9.85;;;4.68;;
75488;SDS011;64069;46.396;48.102;2023-08-24T00:33:47;10.60;;;5.28;;
75488;SDS011;64069;46.396;48.102;2023-08-24T00:36:24;8.23;;;5.13;;
75488;SDS011;64069;46.396;48.102;2023-08-24T00:38:50;7.32;;;4.22;;
75488;SDS011;64069;46.396;48.102;2023-08-24T00:41:24;6.30;;;3.67;;
75488;SDS011;64069;46.396;48.102;2023-08-24T00:43:56;6.32;;;3.55;;
75488;SDS011;64069;46.396;48.102;2023-08-24T00:46:23;5.65;;;3.42;;
75488;SDS011;64069;46.396;48.102;2023-08-24T00:48:59;6.10;;;3.22;;
75488;SDS011;64069;46.396;48.102;2023-08-24T00:51:31;7.05;;;3.50;;
75488;SDS011;64069;46.396;48.102;2023-08-24T00:54:04;7.72;;;3.90;;
75488;SDS011;64069;46.396;48.102;2023-08-24T00:56:36;7.10;;;3.92;;
75488;SDS011;64069;46.396;48.102;2023-08-24T00:59:02;7.68;;;3.47;;
75488;SDS011;64069;46.396;48.102;2023-08-24T01:01:34;6.53;;;3.75;;
75488;SDS011;64069;46.396;48.102;2023-08-24T01:04:07;6.72;;;3.30;;
75488;SDS011;64069;46.396;48.102;2023-08-24T01:06:36;7.80;;;4.07;;
75488;SDS011;64069;46.396;48.102;2023-08-24T01:09:09;6.10;;;3.70;;
75488;SDS011;64069;46.396;48.102;2023-08-24T01:11:49;6.50;;;4.03;;
75488;SDS011;64069;46.396;48.102;2023-08-24T01:14:47;5.78;;;3.70;;
75488;SDS011;64069;46.396;48.102;2023-08-24T01:17:27;6.30;;;3.60;;
75488;SDS011;64069;46.396;48.102;2023-08-24T01:19:56;6.78;;;3.38;;
75488;SDS011;64069;46.396;48.102;2023-08-24T01:30:13;7.60;;;3.90;;
75488;SDS011;64069;46.396;48.102;2023-08-24T01:32:52;7.88;;;3.90;;
75488;SDS011;64069;46.396;48.102;2023-08-24T01:35:25;6.10;;;3.22;;
75488;SDS011;64069;46.396;48.102;2023-08-24T01:37:51;6.72;;;3.88;;
75488;SDS011;64069;46.396;48.102;2023-08-24T01:43:25;13.95;;;4.57;;
75488;SDS011;64069;46.396;48.102;2023-08-24T01:46:05;10.43;;;4.03;;
75488;SDS011;64069;46.396;48.102;2023-08-24T01:48:38;9.55;;;4.85;;
75488;SDS011;64069;46.396;48.102;2023-08-24T01:51:11;16.10;;;4.47;;
75488;SDS011;64069;46.396;48.102;2023-08-24T01:53:38;24.65;;;5.10;;
75488;SDS011;64069;46.396;48.102;2023-08-24T01:56:12;16.90;;;5.13;;
75488;SDS011;64069;46.396;48.102;2023-08-24T01:58:46;10.57;;;4.65;;
75488;SDS011;64069;46.396;48.102;2023-08-24T02:01:13;17.23;;;5.40;;
75488;SDS011;64069;46.396;48.102;2023-08-24T02:03:45;42.13;;;6.60;;
75488;SDS011;64069;46.396;48.102;2023-08-24T02:06:18;19.45;;;5.05;;
75488;SDS011;64069;46.396;48.102;2023-08-24T02:08:44;36.75;;;6.00;;
75488;SDS011;64069;46.396;48.102;2023-08-24T02:11:17;18.38;;;5.38;;
75488;SDS011;64069;46.396;48.102;2023-08-24T02:13:50;22.65;;;4.55;;
75488;SDS011;64069;46.396;48.102;2023-08-24T02:16:16;15.43;;;5.00;;
75488;SDS011;64069;46.396;48.102;2023-08-24T02:18:50;13.55;;;4.88;;
75488;SDS011;64069;46.396;48.102;2023-08-24T02:21:16;23.27;;;5.13;;
75488;SDS011;64069;46.396;48.102;2023-08-24T02:23:48;37.17;;;6.97;;
75488;SDS011;64069;46.396;48.102;2023-08-24T02:26:21;33.08;;;5.75;;
75488;SDS011;64069;46.396;48.102;2023-08-24T02:28:47;16.65;;;5.63;;
75488;SDS011;64069;46.396;48.102;2023-08-24T02:31:19;12.38;;;4.80;;
75488;SDS011;64069;46.396;48.102;2023-08-24T02:33:51;15.93;;;5.85;;
75488;SDS011;64069;46.396;48.102;2023-08-24T02:36:30;13.77;;;4.38;;
75488;SDS011;64069;46.396;48.102;2023-08-24T02:38:58;15.18;;;4.95;;
75488;SDS011;64069;46.396;48.102;2023-08-24T02:41:31;22.45;;;4.88;;
75488;SDS011;64069;46.396;48.102;2023-08-24T02:44:04;32.70;;;6.43;;
75488;SDS011;64069;46.396;48.102;2023-08-24T02:46:30;25.85;;;5.72;;
75488;SDS011;64069;46.396;48.102;2023-08-24T02:49:02;19.08;;;4.45;;
75488;SDS011;64069;46.396;48.102;2023-08-24T02:51:34;14.57;;;5.55;;
75488;SDS011;64069;46.396;48.102;2023-08-24T02:54:00;18.63;;;4.65;;
75488;SDS011;64069;46.396;48.102;2023-08-24T02:56:32;19.85;;;4.95;;
75488;SDS011;64069;46.396;48.102;2023-08-24T02:59:04;19.23;;;4.70;;
75488;SDS011;64069;46.396;48.102;2023-08-24T03:01:30;10.98;;;4.47;;
75488;SDS011;64069;46.396;48.102;2023-08-24T03:04:02;12.40;;;4.65;;
75488;SDS011;64069;46.396;48.102;2023-08-24T03:06:35;13.23;;;4.60;;
75488;SDS011;64069;46.396;48.102;2023-08-24T03:09:01;12.90;;;4.70;;
75488;SDS011;64069;46.396;48.102;2023-08-24T03:11:36;20.75;;;7.05;;
75488;SDS011;64069;46.396;48.102;2023-08-24T03:14:10;27.55;;;8.30;;
75488;SDS011;64069;46.396;48.102;2023-08-24T03:16:39;17.73;;;6.05;;
75488;SDS011;64069;46.396;48.102;2023-08-24T03:19:11;17.80;;;5.55;;
75488;SDS011;64069;46.396;48.102;2023-08-24T03:21:46;20.75;;;5.43;;
75488;SDS011;64069;46.396;48.102;2023-08-24T03:24:11;23.63;;;6.93;;
75488;SDS011;64069;46.396;48.102;2023-08-24T03:26:43;14.82;;;5.50;;
75488;SDS011;64069;46.396;48.102;2023-08-24T03:29:15;10.32;;;4.13;;
75488;SDS011;64069;46.396;48.102;2023-08-24T03:31:41;9.77;;;3.70;;
75488;SDS011;64069;46.396;48.102;2023-08-24T03:34:13;16.23;;;4.13;;
75488;SDS011;64069;46.396;48.102;2023-08-24T03:36:46;12.30;;;3.75;;
75488;SDS011;64069;46.396;48.102;2023-08-24T03:39:13;8.25;;;3.92;;
75488;SDS011;64069;46.396;48.102;2023-08-24T03:41:46;20.90;;;4.38;;
75488;SDS011;64069;46.396;48.102;2023-08-24T03:44:18;15.25;;;4.10;;
75488;SDS011;64069;46.396;48.102;2023-08-24T03:46:44;11.07;;;4.28;;
75488;SDS011;64069;46.396;48.102;2023-08-24T03:49:16;9.23;;;3.60;;
75488;SDS011;64069;46.396;48.102;2023-08-24T03:51:49;33.25;;;5.65;;
75488;SDS011;64069;46.396;48.102;2023-08-24T03:54:16;15.40;;;3.60;;
75488;SDS011;64069;46.396;48.102;2023-08-24T03:56:48;7.38;;;3.20;;
75488;SDS011;64069;46.396;48.102;2023-08-24T03:59:21;12.48;;;3.75;;
75488;SDS011;64069;46.396;48.102;2023-08-24T04:01:53;9.48;;;3.90;;
75488;SDS011;64069;46.396;48.102;2023-08-24T04:04:22;6.88;;;3.33;;
75488;SDS011;64069;46.396;48.102;2023-08-24T04:06:54;12.70;;;3.47;;
75488;SDS011;64069;46.396;48.102;2023-08-24T04:09:27;10.38;;;4.47;;
75488;SDS011;64069;46.396;48.102;2023-08-24T04:12:01;14.88;;;3.97;;
75488;SDS011;64069;46.396;48.102;2023-08-24T04:14:27;11.02;;;3.75;;
75488;SDS011;64069;46.396;48.102;2023-08-24T04:17:00;8.05;;;3.15;;
75488;SDS011;64069;46.396;48.102;2023-08-24T04:19:33;9.73;;;3.53;;
75488;SDS011;64069;46.396;48.102;2023-08-24T04:21:58;11.68;;;4.25;;
75488;SDS011;64069;46.396;48.102;2023-08-24T04:24:30;6.72;;;3.50;;
75488;SDS011;64069;46.396;48.102;2023-08-24T04:27:03;8.13;;;3.25;;
75488;SDS011;64069;46.396;48.102;2023-08-24T04:29:28;13.15;;;3.78;;
75488;SDS011;64069;46.396;48.102;2023-08-24T04:32:00;9.50;;;3.40;;
75488;SDS011;64069;46.396;48.102;2023-08-24T04:34:33;6.30;;;3.00;;
75488;SDS011;64069;46.396;48.102;2023-08-24T04:36:58;6.72;;;2.90;;
75488;SDS011;64069;46.396;48.102;2023-08-24T04:39:32;8.57;;;2.72;;
75488;SDS011;64069;46.396;48.102;2023-08-24T04:42:05;7.57;;;3.00;;
75488;SDS011;64069;46.396;48.102;2023-08-24T04:44:38;8.38;;;3.10;;
75488;SDS011;64069;46.396;48.102;2023-08-24T04:47:04;9.13;;;3.15;;
75488;SDS011;64069;46.396;48.102;2023-08-24T04:49:36;5.55;;;2.97;;
75488;SDS011;64069;46.396;48.102;2023-08-24T04:52:02;15.27;;;3.30;;
75488;SDS011;64069;46.396;48.102;2023-08-24T04:54:36;14.55;;;3.40;;
75488;SDS011;64069;46.396;48.102;2023-08-24T04:57:09;8.18;;;3.05;;
75488;SDS011;64069;46.396;48.102;2023-08-24T04:59:34;8.65;;;2.92;;
75488;SDS011;64069;46.396;48.102;2023-08-24T05:02:06;17.27;;;3.72;;
75488;SDS011;64069;46.396;48.102;2023-08-24T05:04:39;15.23;;;3.55;;
75488;SDS011;64069;46.396;48.102;2023-08-24T05:07:05;10.10;;;3.38;;
75488;SDS011;64069;46.396;48.102;2023-08-24T05:09:37;19.23;;;3.47;;
75488;SDS011;64069;46.396;48.102;2023-08-24T05:12:10;13.00;;;3.17;;
75488;SDS011;64069;46.396;48.102;2023-08-24T05:14:36;9.57;;;3.65;;
75488;SDS011;64069;46.396;48.102;2023-08-24T05:17:08;7.80;;;3.28;;
75488;SDS011;64069;46.396;48.102;2023-08-24T05:19:41;9.15;;;2.90;;
75488;SDS011;64069;46.396;48.102;2023-08-24T05:22:06;7.32;;;3.08;;
75488;SDS011;64069;46.396;48.102;2023-08-24T05:24:38;5.50;;;2.58;;
75488;SDS011;64069;46.396;48.102;2023-08-24T05:27:11;10.95;;;2.75;;
75488;SDS011;64069;46.396;48.102;2023-08-24T05:29:36;60.72;;;4.90;;
75488;SDS011;64069;46.396;48.102;2023-08-24T05:32:08;15.40;;;3.30;;
75488;SDS011;64069;46.396;48.102;2023-08-24T05:34:41;6.20;;;2.80;;
75488;SDS011;64069;46.396;48.102;2023-08-24T05:37:06;7.03;;;2.97;;
75488;SDS011;64069;46.396;48.102;2023-08-24T05:39:38;20.30;;;3.30;;
75488;SDS011;64069;46.396;48.102;2023-08-24T05:42:11;10.13;;;2.83;;
75488;SDS011;64069;46.396;48.102;2023-08-24T05:44:36;22.45;;;3.70;;
75488;SDS011;64069;46.396;48.102;2023-08-24T05:47:15;12.50;;;2.60;;
75488;SDS011;64069;46.396;48.102;2023-08-24T05:49:47;15.20;;;2.30;;
75488;SDS011;64069;46.396;48.102;2023-08-24T05:52:13;6.93;;;2.08;;
75488;SDS011;64069;46.396;48.102;2023-08-24T05:54:46;7.03;;;2.20;;
75488;SDS011;64069;46.396;48.102;2023-08-24T05:57:11;9.68;;;2.15;;
75488;SDS011;64069;46.396;48.102;2023-08-24T05:59:43;8.68;;;2.28;;
75488;SDS011;64069;46.396;48.102;2023-08-24T06:02:16;3.85;;;2.10;;
75488;SDS011;64069;46.396;48.102;2023-08-24T06:04:41;6.47;;;2.35;;
75488;SDS011;64069;46.396;48.102;2023-08-24T06:07:15;13.75;;;2.60;;
75488;SDS011;64069;46.396;48.102;2023-08-24T06:09:48;13.10;;;2.40;;
75488;SDS011;64069;46.396;48.102;2023-08-24T06:12:13;31.55;;;3.50;;
75488;SDS011;64069;46.396;48.102;2023-08-24T06:14:45;8.85;;;2.30;;
75488;SDS011;64069;46.396;48.102;2023-08-24T06:17:18;5.38;;;2.20;;
75488;SDS011;64069;46.396;48.102;2023-08-24T06:19:43;9.82;;;2.33;;
75488;SDS011;64069;46.396;48.102;2023-08-24T06:22:15;3.38;;;1.88;;
75488;SDS011;64069;46.396;48.102;2023-08-24T06:24:48;8.68;;;2.45;;
75488;SDS011;64069;46.396;48.102;2023-08-24T06:27:14;43.72;;;4.18;;
75488;SDS011;64069;46.396;48.102;2023-08-24T06:29:46;8.93;;;2.60;;
75488;SDS011;64069;46.396;48.102;2023-08-24T06:32:19;10.32;;;2.25;;
75488;SDS011;64069;46.396;48.102;2023-08-24T06:34:45;8.57;;;2.55;;
75488;SDS011;64069;46.396;48.102;2023-08-24T06:37:17;5.40;;;2.08;;
75488;SDS011;64069;46.396;48.102;2023-08-24T06:39:51;75.30;;;6.47;;
75488;SDS011;64069;46.396;48.102;2023-08-24T06:42:23;12.82;;;2.90;;
75488;SDS011;64069;46.396;48.102;2023-08-24T06:44:49;13.13;;;2.80;;
75488;SDS011;64069;46.396;48.102;2023-08-24T06:47:22;9.52;;;2.45;;
75488;SDS011;64069;46.396;48.102;2023-08-24T06:50:08;7.00;;;1.60;;
75488;SDS011;64069;46.396;48.102;2023-08-24T06:55:08;7.95;;;2.17;;
75488;SDS011;64069;46.396;48.102;2023-08-24T06:57:41;10.95;;;2.97;;
75488;SDS011;64069;46.396;48.102;2023-08-24T07:00:14;8.18;;;2.35;;
75488;SDS011;64069;46.396;48.102;2023-08-24T07:02:40;5.57;;;2.40;;
75488;SDS011;64069;46.396;48.102;2023-08-24T07:05:13;8.98;;;2.65;;
75488;SDS011;64069;46.396;48.102;2023-08-24T07:07:46;5.68;;;2.60;;
75488;SDS011;64069;46.396;48.102;2023-08-24T07:10:13;4.65;;;2.33;;
75488;SDS011;64069;46.396;48.102;2023-08-24T07:12:46;20.02;;;3.20;;
75488;SDS011;64069;46.396;48.102;2023-08-24T07:15:18;8.23;;;2.70;;
75488;SDS011;64069;46.396;48.102;2023-08-24T07:17:51;4.35;;;2.17;;
75488;SDS011;64069;46.396;48.102;2023-08-24T07:20:16;5.53;;;2.35;;
75488;SDS011;64069;46.396;48.102;2023-08-24T07:22:50;9.55;;;2.80;;
75488;SDS011;64069;46.396;48.102;2023-08-24T07:25:16;12.65;;;2.72;;
75488;SDS011;64069;46.396;48.102;2023-08-24T07:27:49;29.77;;;3.92;;
75488;SDS011;64069;46.396;48.102;2023-08-24T07:30:15;17.33;;;2.80;;
75488;SDS011;64069;46.396;48.102;2023-08-24T07:32:47;6.57;;;2.80;;
75488;SDS011;64069;46.396;48.102;2023-08-24T07:35:12;8.80;;;2.72;;
75488;SDS011;64069;46.396;48.102;2023-08-24T07:37:45;5.05;;;2.20;;
75488;SDS011;64069;46.396;48.102;2023-08-24T07:40:18;3.08;;;1.85;;
75488;SDS011;64069;46.396;48.102;2023-08-24T07:42:44;15.75;;;2.90;;
75488;SDS011;64069;46.396;48.102;2023-08-24T07:45:18;10.07;;;2.53;;
75488;SDS011;64069;46.396;48.102;2023-08-24T07:47:51;11.75;;;3.03;;
75488;SDS011;64069;46.396;48.102;2023-08-24T07:50:37;9.95;;;3.17;;
75488;SDS011;64069;46.396;48.102;2023-08-24T07:53:10;32.08;;;4.22;;
75488;SDS011;64069;46.396;48.102;2023-08-24T07:55:35;20.13;;;3.70;;
75488;SDS011;64069;46.396;48.102;2023-08-24T07:58:08;15.77;;;3.15;;
75488;SDS011;64069;46.396;48.102;2023-08-24T08:00:40;6.80;;;2.70;;
75488;SDS011;64069;46.396;48.102;2023-08-24T08:03:13;19.33;;;4.25;;
75488;SDS011;64069;46.396;48.102;2023-08-24T08:05:46;13.80;;;3.10;;
75488;SDS011;64069;46.396;48.102;2023-08-24T08:08:13;22.52;;;3.53;;
75488;SDS011;64069;46.396;48.102;2023-08-24T08:10:45;14.38;;;3.00;;
75488;SDS011;64069;46.396;48.102;2023-08-24T08:13:19;7.32;;;2.58;;
75488;SDS011;64069;46.396;48.102;2023-08-24T08:15:44;3.90;;;2.20;;
75488;SDS011;64069;46.396;48.102;2023-08-24T08:18:18;9.05;;;2.60;;
75488;SDS011;64069;46.396;48.102;2023-08-24T08:20:50;8.55;;;2.40;;
75488;SDS011;64069;46.396;48.102;2023-08-24T08:23:16;7.68;;;2.67;;
75488;SDS011;64069;46.396;48.102;2023-08-24T08:25:49;19.27;;;3.30;;
75488;SDS011;64069;46.396;48.102;2023-08-24T08:28:22;8.50;;;2.85;;
75488;SDS011;64069;46.396;48.102;2023-08-24T08:30:48;12.60;;;2.47;;
75488;SDS011;64069;46.396;48.102;2023-08-24T08:33:21;35.42;;;3.65;;
75488;SDS011;64069;46.396;48.102;2023-08-24T08:35:47;14.93;;;3.13;;
75488;SDS011;64069;46.396;48.102;2023-08-24T08:38:20;9.88;;;3.00;;
75488;SDS011;64069;46.396;48.102;2023-08-24T08:41:00;5.75;;;2.33;;
75488;SDS011;64069;46.396;48.102;2023-08-24T08:43:35;14.07;;;2.95;;
75488;SDS011;64069;46.396;48.102;2023-08-24T08:46:10;8.25;;;2.97;;
75488;SDS011;64069;46.396;48.102;2023-08-24T08:48:51;13.23;;;3.20;;
75488;SDS011;64069;46.396;48.102;2023-08-24T08:51:18;6.70;;;2.50;;
75488;SDS011;64069;46.396;48.102;2023-08-24T08:53:51;11.38;;;3.25;;
75488;SDS011;64069;46.396;48.102;2023-08-24T08:56:24;29.92;;;4.15;;
75488;SDS011;64069;46.396;48.102;2023-08-24T08:58:50;8.20;;;2.13;;
75488;SDS011;64069;46.396;48.102;2023-08-24T09:01:29;10.20;;;2.50;;
75488;SDS011;64069;46.396;48.102;2023-08-24T09:04:02;11.88;;;2.70;;
75488;SDS011;64069;46.396;48.102;2023-08-24T09:06:28;20.27;;;3.53;;
75488;SDS011;64069;46.396;48.102;2023-08-24T09:09:01;12.50;;;2.70;;
75488;SDS011;64069;46.396;48.102;2023-08-24T09:11:27;10.77;;;2.63;;
75488;SDS011;64069;46.396;48.102;2023-08-24T09:14:00;14.38;;;2.78;;
75488;SDS011;64069;46.396;48.102;2023-08-24T09:16:33;7.65;;;2.75;;
75488;SDS011;64069;46.396;48.102;2023-08-24T09:19:00;8.48;;;2.83;;
75488;SDS011;64069;46.396;48.102;2023-08-24T09:21:39;11.98;;;3.08;;
75488;SDS011;64069;46.396;48.102;2023-08-24T09:24:14;8.00;;;2.80;;
75488;SDS011;64069;46.396;48.102;2023-08-24T09:26:40;10.95;;;3.08;;
75488;SDS011;64069;46.396;48.102;2023-08-24T09:29:16;10.35;;;2.90;;
75488;SDS011;64069;46.396;48.102;2023-08-24T09:31:49;7.60;;;2.60;;
75488;SDS011;64069;46.396;48.102;2023-08-24T09:34:24;6.72;;;3.10;;
75488;SDS011;64069;46.396;48.102;2023-08-24T09:37:03;7.32;;;3.05;;
75488;SDS011;64069;46.396;48.102;2023-08-24T09:39:36;8.95;;;3.17;;
75488;SDS011;64069;46.396;48.102;2023-08-24T09:42:01;11.73;;;3.13;;
75488;SDS011;64069;46.396;48.102;2023-08-24T09:44:35;10.93;;;3.33;;
75488;SDS011;64069;46.396;48.102;2023-08-24T09:47:10;4.65;;;2.78;;
75488;SDS011;64069;46.396;48.102;2023-08-24T09:49:36;16.00;;;2.53;;
75488;SDS011;64069;46.396;48.102;2023-08-24T09:52:09;4.88;;;2.85;;
75488;SDS011;64069;46.396;48.102;2023-08-24T09:54:41;6.00;;;2.97;;
75488;SDS011;64069;46.396;48.102;2023-08-24T09:57:15;8.85;;;2.80;;
75488;SDS011;64069;46.396;48.102;2023-08-24T09:59:42;5.10;;;2.92;;
75488;SDS011;64069;46.396;48.102;2023-08-24T10:02:20;12.88;;;3.03;;
75488;SDS011;64069;46.396;48.102;2023-08-24T10:05:02;16.40;;;3.50;;
75488;SDS011;64069;46.396;48.102;2023-08-24T10:07:30;31.50;;;5.55;;
75488;SDS011;64069;46.396;48.102;2023-08-24T10:10:04;10.18;;;2.88;;
75488;SDS011;64069;46.396;48.102;2023-08-24T10:12:44;6.72;;;2.85;;
75488;SDS011;64069;46.396;48.102;2023-08-24T10:15:22;9.80;;;2.88;;
75488;SDS011;64069;46.396;48.102;2023-08-24T10:17:49;13.30;;;3.25;;
75488;SDS011;64069;46.396;48.102;2023-08-24T10:20:23;11.05;;;3.20;;
75488;SDS011;64069;46.396;48.102;2023-08-24T10:22:50;15.40;;;3.22;;
75488;SDS011;64069;46.396;48.102;2023-08-24T10:25:23;32.22;;;4.70;;
75488;SDS011;64069;46.396;48.102;2023-08-24T10:27:56;8.25;;;3.10;;
75488;SDS011;64069;46.396;48.102;2023-08-24T10:30:32;23.15;;;4.25;;
75488;SDS011;64069;46.396;48.102;2023-08-24T10:33:00;7.82;;;3.10;;
75488;SDS011;64069;46.396;48.102;2023-08-24T10:35:34;4.95;;;2.47;;
75488;SDS011;64069;46.396;48.102;2023-08-24T10:38:01;8.90;;;2.60;;
75488;SDS011;64069;46.396;48.102;2023-08-24T10:40:37;10.90;;;2.67;;
75488;SDS011;64069;46.396;48.102;2023-08-24T10:43:16;16.90;;;3.92;;
75488;SDS011;64069;46.396;48.102;2023-08-24T10:45:58;8.88;;;2.92;;
75488;SDS011;64069;46.396;48.102;2023-08-24T10:53:58;13.98;;;2.80;;
75488;SDS011;64069;46.396;48.102;2023-08-24T10:56:29;11.45;;;3.50;;
75488;SDS011;64069;46.396;48.102;2023-08-24T10:59:17;11.48;;;3.10;;
75488;SDS011;64069;46.396;48.102;2023-08-24T11:04:24;19.63;;;2.92;;
75488;SDS011;64069;46.396;48.102;2023-08-24T11:06:57;15.55;;;3.33;;
75488;SDS011;64069;46.396;48.102;2023-08-24T11:09:46;9.18;;;2.58;;
75488;SDS011;64069;46.396;48.102;2023-08-24T11:12:19;8.88;;;2.47;;
75488;SDS011;64069;46.396;48.102;2023-08-24T11:14:51;17.42;;;3.53;;
75488;SDS011;64069;46.396;48.102;2023-08-24T11:17:30;10.00;;;2.65;;
75488;SDS011;64069;46.396;48.102;2023-08-24T11:20:05;4.85;;;2.33;;
75488;SDS011;64069;46.396;48.102;2023-08-24T11:22:32;11.98;;;2.67;;
75488;SDS011;64069;46.396;48.102;2023-08-24T11:25:05;11.45;;;2.47;;
75488;SDS011;64069;46.396;48.102;2023-08-24T11:27:38;15.52;;;2.53;;
75488;SDS011;64069;46.396;48.102;2023-08-24T11:30:06;27.67;;;3.58;;
75488;SDS011;64069;46.396;48.102;2023-08-24T11:32:40;26.73;;;3.75;;
75488;SDS011;64069;46.396;48.102;2023-08-24T11:35:06;6.00;;;2.00;;
75488;SDS011;64069;46.396;48.102;2023-08-24T11:37:43;15.70;;;2.95;;
75488;SDS011;64069;46.396;48.102;2023-08-24T11:40:18;25.73;;;3.35;;
75488;SDS011;64069;46.396;48.102;2023-08-24T11:42:56;8.35;;;2.47;;
75488;SDS011;64069;46.396;48.102;2023-08-24T11:45:33;6.93;;;2.08;;
75488;SDS011;64069;46.396;48.102;2023-08-24T11:48:08;8.95;;;2.50;;
75488;SDS011;64069;46.396;48.102;2023-08-24T11:50:42;6.47;;;1.98;;
75488;SDS011;64069;46.396;48.102;2023-08-24T11:53:08;30.25;;;3.63;;
75488;SDS011;64069;46.396;48.102;2023-08-24T11:55:41;9.25;;;2.30;;
75488;SDS011;64069;46.396;48.102;2023-08-24T11:58:16;7.35;;;2.35;;
75488;SDS011;64069;46.396;48.102;2023-08-24T12:00:42;12.98;;;2.40;;
75488;SDS011;64069;46.396;48.102;2023-08-24T12:03:23;4.40;;;1.88;;
75488;SDS011;64069;46.396;48.102;2023-08-24T12:05:59;6.55;;;1.90;;
75488;SDS011;64069;46.396;48.102;2023-08-24T12:08:36;4.25;;;1.92;;
75488;SDS011;64069;46.396;48.102;2023-08-24T12:11:19;7.75;;;2.15;;
75488;SDS011;64069;46.396;48.102;2023-08-24T12:13:57;9.40;;;2.10;;
75488;SDS011;64069;46.396;48.102;2023-08-24T12:16:30;4.18;;;1.75;;
75488;SDS011;64069;46.396;48.102;2023-08-24T12:19:07;13.90;;;2.17;;
75488;SDS011;64069;46.396;48.102;2023-08-24T12:21:33;7.22;;;2.33;;
75488;SDS011;64069;46.396;48.102;2023-08-24T12:24:06;7.30;;;1.98;;
75488;SDS011;64069;46.396;48.102;2023-08-24T12:26:34;6.85;;;2.03;;
75488;SDS011;64069;46.396;48.102;2023-08-24T12:29:08;5.78;;;1.75;;
75488;SDS011;64069;46.396;48.102;2023-08-24T12:31:42;9.15;;;1.67;;
75488;SDS011;64069;46.396;48.102;2023-08-24T12:34:09;14.98;;;2.00;;
75488;SDS011;64069;46.396;48.102;2023-08-24T12:36:42;4.47;;;1.30;;
75488;SDS011;64069;46.396;48.102;2023-08-24T12:39:15;5.15;;;1.88;;
75488;SDS011;64069;46.396;48.102;2023-08-24T12:41:41;9.65;;;1.90;;
75488;SDS011;64069;46.396;48.102;2023-08-24T12:44:13;7.22;;;1.85;;
75488;SDS011;64069;46.396;48.102;2023-08-24T12:46:46;7.75;;;1.90;;
75488;SDS011;64069;46.396;48.102;2023-08-24T12:49:12;7.15;;;1.88;;
75488;SDS011;64069;46.396;48.102;2023-08-24T12:51:45;11.50;;;1.90;;
75488;SDS011;64069;46.396;48.102;2023-08-24T12:54:19;4.63;;;1.48;;
75488;SDS011;64069;46.396;48.102;2023-08-24T12:56:45;13.48;;;1.65;;
75488;SDS011;64069;46.396;48.102;2023-08-24T12:59:17;2.90;;;1.40;;
75488;SDS011;64069;46.396;48.102;2023-08-24T13:01:50;4.55;;;1.70;;
75488;SDS011;64069;46.396;48.102;2023-08-24T13:04:37;6.90;;;1.40;;
75488;SDS011;64069;46.396;48.102;2023-08-24T13:07:09;7.72;;;1.42;;
75488;SDS011;64069;46.396;48.102;2023-08-24T13:09:42;4.20;;;1.40;;
75488;SDS011;64069;46.396;48.102;2023-08-24T13:12:08;4.05;;;1.63;;
75488;SDS011;64069;46.396;48.102;2023-08-24T13:14:42;9.65;;;1.50;;
75488;SDS011;64069;46.396;48.102;2023-08-24T13:17:08;4.55;;;1.45;;
75488;SDS011;64069;46.396;48.102;2023-08-24T13:19:41;3.78;;;1.42;;
75488;SDS011;64069;46.396;48.102;2023-08-24T13:22:13;16.65;;;2.13;;
75488;SDS011;64069;46.396;48.102;2023-08-24T13:24:39;6.72;;;1.48;;
75488;SDS011;64069;46.396;48.102;2023-08-24T13:27:11;3.70;;;1.35;;
75488;SDS011;64069;46.396;48.102;2023-08-24T13:29:37;7.05;;;1.70;;
75488;SDS011;64069;46.396;48.102;2023-08-24T13:32:10;9.30;;;1.77;;
75488;SDS011;64069;46.396;48.102;2023-08-24T13:34:37;6.85;;;1.50;;
75488;SDS011;64069;46.396;48.102;2023-08-24T13:37:10;10.60;;;1.65;;
75488;SDS011;64069;46.396;48.102;2023-08-24T13:39:44;5.85;;;1.42;;
75488;SDS011;64069;46.396;48.102;2023-08-24T13:42:10;4.47;;;1.40;;
75488;SDS011;64069;46.396;48.102;2023-08-24T13:44:42;5.97;;;1.40;;
75488;SDS011;64069;46.396;48.102;2023-08-24T13:47:15;9.52;;;1.73;;
75488;SDS011;64069;46.396;48.102;2023-08-24T13:49:41;5.78;;;1.35;;
75488;SDS011;64069;46.396;48.102;2023-08-24T13:52:14;5.38;;;1.80;;
75488;SDS011;64069;46.396;48.102;2023-08-24T13:54:48;4.75;;;2.28;;
75488;SDS011;64069;46.396;48.102;2023-08-24T13:57:20;2.63;;;1.20;;
75488;SDS011;64069;46.396;48.102;2023-08-24T13:59:52;4.25;;;1.13;;
75488;SDS011;64069;46.396;48.102;2023-08-24T14:02:18;6.90;;;1.63;;
75488;SDS011;64069;46.396;48.102;2023-08-24T14:04:51;6.53;;;2.08;;
75488;SDS011;64069;46.396;48.102;2023-08-24T14:07:30;12.90;;;2.20;;
75488;SDS011;64069;46.396;48.102;2023-08-24T14:10:02;19.25;;;2.25;;
75488;SDS011;64069;46.396;48.102;2023-08-24T14:12:35;6.25;;;1.70;;
75488;SDS011;64069;46.396;48.102;2023-08-24T14:15:10;4.78;;;1.85;;
75488;SDS011;64069;46.396;48.102;2023-08-24T14:17:43;9.10;;;1.80;;
75488;SDS011;64069;46.396;48.102;2023-08-24T14:20:15;3.90;;;1.60;;
75488;SDS011;64069;46.396;48.102;2023-08-24T14:22:41;4.15;;;1.80;;
75488;SDS011;64069;46.396;48.102;2023-08-24T14:25:13;42.80;;;3.63;;
75488;SDS011;64069;46.396;48.102;2023-08-24T14:27:39;8.85;;;1.70;;
75488;SDS011;64069;46.396;48.102;2023-08-24T14:30:13;22.83;;;8.10;;
75488;SDS011;64069;46.396;48.102;2023-08-24T14:32:46;12.48;;;2.40;;
75488;SDS011;64069;46.396;48.102;2023-08-24T14:35:12;12.77;;;3.47;;
75488;SDS011;64069;46.396;48.102;2023-08-24T14:37:44;7.75;;;2.42;;
75488;SDS011;64069;46.396;48.102;2023-08-24T14:40:16;4.82;;;1.58;;
75488;SDS011;64069;46.396;48.102;2023-08-24T14:42:51;3.25;;;1.50;;
75488;SDS011;64069;46.396;48.102;2023-08-24T14:45:25;4.68;;;1.23;;
75488;SDS011;64069;46.396;48.102;2023-08-24T14:47:51;8.40;;;2.05;;
75488;SDS011;64069;46.396;48.102;2023-08-24T14:50:24;6.35;;;1.90;;
75488;SDS011;64069;46.396;48.102;2023-08-24T14:52:57;6.32;;;1.77;;
75488;SDS011;64069;46.396;48.102;2023-08-24T14:55:30;10.98;;;1.58;;
75488;SDS011;64069;46.396;48.102;2023-08-24T14:58:02;8.95;;;1.70;;
75488;SDS011;64069;46.396;48.102;2023-08-24T15:00:28;11.65;;;2.13;;
75488;SDS011;64069;46.396;48.102;2023-08-24T15:03:08;6.45;;;1.85;;
75488;SDS011;64069;46.396;48.102;2023-08-24T15:06:01;12.63;;;1.90;;
75488;SDS011;64069;46.396;48.102;2023-08-24T15:08:40;9.27;;;2.40;;
75488;SDS011;64069;46.396;48.102;2023-08-24T15:11:06;10.35;;;3.13;;
75488;SDS011;64069;46.396;48.102;2023-08-24T15:13:39;7.13;;;2.45;;
75488;SDS011;64069;46.396;48.102;2023-08-24T15:16:18;5.47;;;2.20;;